Time;durP1;ratioP1;P1;durP2;ratioP2;P2;SDS_P1;SDS_P2;PMS_P1;PMS_P2;Temp;Humidity;BMP_temperature;BMP_pressure;BME280_temperature;BME280_humidity;BME280_pressure;Samples;Min_cycle;Max_cycle;Signal;HPM_P1;HPM_P2
2023/05/24 00:01:37;;;;;;;17.40;2.67;;;;;;;14.02;60.73;101503.63;4949869;28;20042;-39
2023/05/24 00:04:03;;;;;;;14.18;3.03;;;;;;;13.92;60.89;101505.13;4950181;28;20034;-40
2023/05/24 00:06:29;;;;;;;10.70;2.42;;;;;;;13.94;61.06;101499.72;4970261;28;20138;-39
2023/05/24 00:08:55;;;;;;;15.63;3.08;;;;;;;13.86;61.00;101498.41;4965587;28;20042;-39
2023/05/24 00:11:21;;;;;;;10.88;2.45;;;;;;;13.85;61.16;101499.34;4984358;28;20092;-39
2023/05/24 00:13:47;;;;;;;13.63;2.40;;;;;;;13.81;61.13;101495.16;4971299;28;20026;-39
2023/05/24 00:16:14;;;;;;;11.05;2.78;;;;;;;13.79;61.36;101498.88;4946810;28;20034;-40
2023/05/24 00:18:40;;;;;;;13.98;2.90;;;;;;;13.75;61.11;101492.03;4948761;28;20045;-39
2023/05/24 00:21:14;;;;;;;13.95;2.33;;;;;;;13.79;61.10;101488.28;4956596;28;20125;-39
2023/05/24 00:23:44;;;;;;;10.40;2.60;;;;;;;13.77;61.04;101490.16;4965459;28;27115;-39
2023/05/24 00:26:10;;;;;;;17.83;3.28;;;;;;;13.77;60.99;101503.38;4970457;28;20391;-40
2023/05/24 00:28:35;;;;;;;20.90;2.80;;;;;;;13.77;60.79;101500.75;4972693;28;20040;-39
2023/05/24 00:31:02;;;;;;;11.18;3.15;;;;;;;13.79;60.53;101504.16;4950427;28;20476;-39
2023/05/24 00:33:28;;;;;;;12.02;2.28;;;;;;;13.79;60.58;101502.34;4956794;28;20046;-39
2023/05/24 00:35:57;;;;;;;9.43;2.55;;;;;;;13.74;60.50;101499.13;4938088;28;20034;-39
2023/05/24 00:38:24;;;;;;;10.23;2.38;;;;;;;13.70;60.44;101498.44;4953908;28;20026;-39
2023/05/24 00:40:50;;;;;;;15.75;2.17;;;;;;;13.71;60.40;101494.88;4946402;28;20053;-39
2023/05/24 00:43:15;;;;;;;12.70;2.17;;;;;;;13.72;60.48;101486.00;4962154;28;20489;-39
2023/05/24 00:45:41;;;;;;;12.02;2.72;;;;;;;13.77;60.30;101488.34;4958993;28;20401;-39
2023/05/24 00:48:08;;;;;;;10.30;2.88;;;;;;;13.72;60.64;101488.63;4952205;28;20105;-39
2023/05/24 00:50:34;;;;;;;8.15;2.17;;;;;;;13.78;60.38;101483.94;4970427;28;20032;-39
2023/05/24 00:53:01;;;;;;;16.30;2.17;;;;;;;13.75;60.52;101486.75;4960970;28;20030;-39
2023/05/24 00:55:28;;;;;;;10.25;2.35;;;;;;;13.72;60.74;101493.09;4970052;28;20030;-39
2023/05/24 00:57:58;;;;;;;12.57;2.88;;;;;;;13.74;60.83;101492.97;4967078;28;20053;-39
2023/05/24 01:00:26;;;;;;;12.18;2.58;;;;;;;13.69;60.99;101490.63;4953073;28;20031;-39
2023/05/24 01:02:53;;;;;;;9.43;2.45;;;;;;;13.68;60.91;101492.41;4943443;28;20035;-39
2023/05/24 01:05:20;;;;;;;16.10;3.05;;;;;;;13.75;60.71;101495.56;4954117;28;20129;-39
2023/05/24 01:07:45;;;;;;;13.35;2.35;;;;;;;13.77;60.54;101495.44;4938833;28;20101;-39
2023/05/24 01:10:19;;;;;;;10.60;2.35;;;;;;;13.70;60.59;101495.81;4973742;28;20515;-39
2023/05/24 01:13:00;;;;;;;13.07;2.53;;;;;;;13.81;60.54;101486.41;4973220;28;20505;-39
2023/05/24 01:15:51;;;;;;;18.25;3.95;;;;;;;13.85;60.35;101487.91;4967926;28;20042;-39
2023/05/24 01:18:29;;;;;;;8.98;2.95;;;;;;;13.87;60.18;101493.94;4969048;28;20081;-39
2023/05/24 01:21:19;;;;;;;12.68;2.88;;;;;;;13.86;60.44;101510.75;4951185;28;20121;-39
2023/05/24 01:24:06;;;;;;;10.85;2.53;;;;;;;13.87;60.42;101504.53;4974403;28;20036;-39
2023/05/24 01:27:02;;;;;;;15.70;3.13;;;;;;;13.81;60.60;101504.91;4966010;28;20022;-39
2023/05/24 01:29:30;;;;;;;11.63;2.00;;;;;;;13.82;60.30;101511.91;4956327;28;20033;-40
2023/05/24 01:31:56;;;;;;;8.25;2.00;;;;;;;13.75;60.56;101510.56;4960858;28;20044;-39
2023/05/24 01:34:21;;;;;;;17.75;4.93;;;;;;;13.77;60.28;101508.69;4956003;28;20580;-39
2023/05/24 01:36:47;;;;;;;12.73;2.50;;;;;;;13.81;60.26;101511.03;4954867;28;20034;-39
2023/05/24 01:39:13;;;;;;;14.32;2.85;;;;;;;13.78;60.06;101516.50;4942800;28;20089;-39
2023/05/24 01:41:46;;;;;;;7.18;2.75;;;;;;;13.83;60.11;101513.63;4931767;28;20496;-39
2023/05/24 01:44:48;;;;;;;10.93;2.47;;;;;;;13.83;60.11;101524.19;4964711;28;20026;-39
2023/05/24 01:47:23;;;;;;;14.50;2.85;;;;;;;13.82;60.04;101527.78;4967524;28;20039;-39
2023/05/24 01:49:52;;;;;;;11.63;2.85;;;;;;;13.78;59.81;101521.78;4965650;28;20038;-40
2023/05/24 01:52:21;;;;;;;5.47;2.13;;;;;;;13.76;59.80;101520.19;4965744;28;20042;-39
2023/05/24 01:54:52;;;;;;;14.98;2.53;;;;;;;13.69;59.95;101525.00;4949429;28;20157;-39
2023/05/24 01:57:21;;;;;;;14.45;4.13;;;;;;;13.72;59.96;101516.88;4971177;28;20057;-39
2023/05/24 01:59:49;;;;;;;8.73;2.22;;;;;;;13.74;59.84;101514.13;4956261;28;20049;-39
2023/05/24 02:02:15;;;;;;;12.50;2.25;;;;;;;13.75;59.81;101518.50;4956698;28;20109;-39
2023/05/24 02:04:41;;;;;;;9.05;2.10;;;;;;;13.72;59.92;101517.72;4967310;28;20030;-39
2023/05/24 02:07:06;;;;;;;9.43;2.58;;;;;;;13.70;59.84;101524.91;4957353;28;20039;-39
2023/05/24 02:09:32;;;;;;;12.20;2.53;;;;;;;13.66;59.65;101526.03;4967525;28;20045;-39
2023/05/24 02:11:58;;;;;;;15.40;2.60;;;;;;;13.64;59.86;101524.41;4964131;28;20049;-40
2023/05/24 02:14:25;;;;;;;14.20;2.92;;;;;;;13.66;59.95;101531.31;4953438;28;20031;-39
2023/05/24 02:16:50;;;;;;;14.80;2.58;;;;;;;13.68;59.74;101526.81;4957923;28;20081;-39
2023/05/24 02:19:16;;;;;;;11.80;2.83;;;;;;;13.69;59.75;101527.63;4954444;28;20038;-39
2023/05/24 02:21:42;;;;;;;7.88;1.92;;;;;;;13.60;60.07;101523.72;4935500;28;20172;-39
2023/05/24 02:24:11;;;;;;;8.85;2.40;;;;;;;13.56;60.13;101531.00;4945125;28;20034;-39
2023/05/24 02:26:37;;;;;;;10.88;2.45;;;;;;;13.46;60.33;101526.31;4965946;28;20084;-39
2023/05/24 02:29:03;;;;;;;12.60;2.10;;;;;;;13.48;60.12;101541.16;4967769;28;20493;-39
2023/05/24 02:31:29;;;;;;;10.38;2.50;;;;;;;13.49;60.05;101531.44;4966671;28;20044;-39
2023/05/24 02:33:56;;;;;;;15.95;3.88;;;;;;;13.51;59.98;101542.78;4966827;28;20053;-39
2023/05/24 02:36:24;;;;;;;14.43;4.78;;;;;;;13.53;59.95;101538.28;4958589;28;20497;-39
2023/05/24 02:38:50;;;;;;;10.73;2.60;;;;;;;13.54;60.15;101534.66;4966210;28;20058;-39
2023/05/24 02:41:17;;;;;;;11.90;2.15;;;;;;;13.63;59.74;101536.78;4953857;28;20030;-39
2023/05/24 02:43:46;;;;;;;15.27;2.72;;;;;;;13.63;59.68;101531.50;4953151;28;20489;-39
2023/05/24 02:46:13;;;;;;;12.48;2.30;;;;;;;13.66;59.57;101541.03;4966209;28;20144;-39
2023/05/24 02:48:39;;;;;;;15.93;2.67;;;;;;;13.72;59.42;101533.59;4967664;28;20161;-40
2023/05/24 02:51:05;;;;;;;13.80;2.90;;;;;;;13.73;59.33;101542.41;4971512;28;20587;-39
2023/05/24 02:53:37;;;;;;;15.25;2.58;;;;;;;13.64;59.79;101541.13;4968804;28;20210;-39
2023/05/24 02:56:03;;;;;;;11.73;2.80;;;;;;;13.63;59.58;101539.44;4975588;28;20496;-39
2023/05/24 02:58:30;;;;;;;14.45;4.00;;;;;;;13.68;59.91;101540.03;4967642;28;20030;-39
2023/05/24 03:00:56;;;;;;;11.80;2.85;;;;;;;13.69;59.56;101538.22;4975138;28;20026;-39
2023/05/24 03:03:27;;;;;;;10.25;2.65;;;;;;;13.63;59.62;101543.84;4971889;28;20026;-39
2023/05/24 03:05:53;;;;;;;13.80;2.63;;;;;;;13.59;59.75;101545.00;4954898;28;20065;-39
2023/05/24 03:08:24;;;;;;;10.90;2.65;;;;;;;13.66;59.77;101539.25;4955927;28;20498;-40
2023/05/24 03:10:50;;;;;;;10.15;2.25;;;;;;;13.68;59.73;101547.97;4957718;28;20045;-39
2023/05/24 03:13:16;;;;;;;11.85;2.35;;;;;;;13.65;59.83;101545.50;4958766;28;20038;-39
2023/05/24 03:15:41;;;;;;;14.85;2.72;;;;;;;13.68;59.62;101542.66;4936154;28;20592;-39
2023/05/24 03:18:09;;;;;;;16.55;2.97;;;;;;;13.68;59.75;101549.72;4945381;28;20050;-39
2023/05/24 03:20:40;;;;;;;10.52;3.15;;;;;;;13.70;59.53;101542.56;4985877;28;20034;-39
2023/05/24 03:23:13;;;;;;;10.57;2.47;;;;;;;13.66;59.73;101541.03;4956992;28;20041;-39
2023/05/24 03:25:39;;;;;;;11.90;2.40;;;;;;;13.64;59.67;101549.06;4947170;28;20065;-39
2023/05/24 03:28:08;;;;;;;16.80;3.13;;;;;;;13.50;59.83;101546.38;4973584;28;20065;-39
2023/05/24 03:30:33;;;;;;;9.30;3.13;;;;;;;13.44;60.10;101544.94;4956349;28;20037;-39
2023/05/24 03:33:01;;;;;;;11.63;3.17;;;;;;;13.50;59.72;101539.28;4971404;28;20038;-39
2023/05/24 03:35:27;;;;;;;19.30;3.67;;;;;;;13.56;59.67;101543.34;4961443;28;20042;-39
2023/05/24 03:37:56;;;;;;;14.13;3.88;;;;;;;13.60;59.41;101544.88;4954930;28;20037;-39
2023/05/24 03:40:31;;;;;;;11.80;2.97;;;;;;;13.53;59.78;101544.41;4959160;28;20482;-39
2023/05/24 03:42:59;;;;;;;11.48;2.50;;;;;;;13.48;59.95;101535.03;4957568;28;20042;-39
2023/05/24 03:45:25;;;;;;;7.97;2.20;;;;;;;13.46;60.00;101552.75;4956333;28;20543;-39
2023/05/24 03:47:53;;;;;;;12.68;2.08;;;;;;;13.46;60.13;101552.75;4966782;28;20469;-39
2023/05/24 03:50:19;;;;;;;9.75;2.72;;;;;;;13.44;60.18;101555.50;4973702;28;20033;-39
2023/05/24 03:52:46;;;;;;;10.38;2.55;;;;;;;13.46;60.36;101563.34;4940192;28;20491;-41
2023/05/24 03:55:13;;;;;;;15.65;2.65;;;;;;;13.29;60.53;101557.19;4950899;28;20124;-40
2023/05/24 03:57:44;;;;;;;13.05;2.72;;;;;;;13.29;60.68;101562.47;4956810;28;20042;-40
2023/05/24 04:00:13;;;;;;;12.10;2.90;;;;;;;13.23;60.80;101568.13;4955765;28;20034;-40
2023/05/24 04:02:39;;;;;;;12.32;3.05;;;;;;;13.20;60.94;101561.19;4971491;28;20808;-40
2023/05/24 04:05:08;;;;;;;16.48;2.67;;;;;;;13.32;60.64;101562.31;4974656;28;20097;-40
2023/05/24 04:07:38;;;;;;;10.00;2.55;;;;;;;13.33;60.39;101557.84;4952701;28;20088;-40
2023/05/24 04:10:06;;;;;;;10.57;2.78;;;;;;;13.43;60.20;101564.38;4973931;28;20034;-40
2023/05/24 04:12:32;;;;;;;17.88;2.78;;;;;;;13.51;59.97;101574.50;4966423;28;20440;-40
2023/05/24 04:14:59;;;;;;;7.90;2.65;;;;;;;13.55;59.83;101574.25;4965216;28;20034;-42
2023/05/24 04:17:25;;;;;;;16.13;2.72;;;;;;;13.57;59.77;101582.06;4969613;28;20034;-40
2023/05/24 04:19:55;;;;;;;14.63;3.05;;;;;;;13.56;59.73;101585.66;4972592;28;20030;-40
2023/05/24 04:22:21;;;;;;;9.60;2.45;;;;;;;13.47;59.88;101583.56;4972252;28;20034;-39
2023/05/24 04:24:48;;;;;;;9.55;2.15;;;;;;;13.50;59.96;101581.56;4969393;28;20404;-40
2023/05/24 04:27:16;;;;;;;17.27;2.58;;;;;;;13.42;59.93;101573.25;4972170;28;20542;-38
2023/05/24 04:29:44;;;;;;;14.07;3.05;;;;;;;13.48;60.12;101583.44;4936674;28;22881;-38
2023/05/24 04:32:13;;;;;;;21.00;5.97;;;;;;;13.41;59.82;101582.94;4962523;28;20746;-38
2023/05/24 04:34:41;;;;;;;9.38;2.35;;;;;;;13.41;59.77;101582.13;4955211;28;20070;-38
2023/05/24 04:37:07;;;;;;;9.45;2.65;;;;;;;13.37;60.08;101581.41;4935991;28;20061;-38
2023/05/24 04:39:33;;;;;;;12.00;2.13;;;;;;;13.31;60.01;101596.75;4974476;28;20093;-38
2023/05/24 04:42:01;;;;;;;9.77;2.15;;;;;;;13.24;60.21;101598.88;4963821;28;20067;-38
2023/05/24 04:44:27;;;;;;;10.07;3.58;;;;;;;13.15;60.64;101592.31;4932373;28;20050;-39
2023/05/24 04:46:53;;;;;;;10.68;2.78;;;;;;;13.20;60.60;101592.06;4964152;28;20424;-38
2023/05/24 04:49:19;;;;;;;11.73;3.00;;;;;;;13.29;60.56;101598.63;4934619;28;20033;-38
2023/05/24 04:51:46;;;;;;;16.48;3.20;;;;;;;13.30;60.34;101602.97;4960401;28;20053;-38
2023/05/24 04:54:11;;;;;;;14.20;3.70;;;;;;;13.36;60.28;101600.84;4934465;28;20038;-40
2023/05/24 04:56:38;;;;;;;17.00;3.50;;;;;;;13.40;60.17;101599.75;4926670;28;20038;-38
2023/05/24 04:59:07;;;;;;;13.25;3.00;;;;;;;13.41;59.98;101608.53;4950818;28;20050;-38
2023/05/24 05:01:33;;;;;;;10.50;2.63;;;;;;;13.42;59.97;101607.63;4967318;28;20045;-38
2023/05/24 05:03:59;;;;;;;14.32;2.92;;;;;;;13.43;60.05;101611.09;4952512;28;20030;-40
2023/05/24 05:06:25;;;;;;;8.32;2.85;;;;;;;13.29;60.65;101607.41;4962694;28;20034;-38
2023/05/24 05:08:51;;;;;;;16.48;2.67;;;;;;;13.34;60.25;101612.44;4935623;28;20053;-38
2023/05/24 05:11:18;;;;;;;17.30;3.05;;;;;;;13.34;60.45;101618.59;4955650;28;20121;-38
2023/05/24 05:13:46;;;;;;;14.43;2.40;;;;;;;13.35;60.43;101609.72;4955130;28;20030;-38
2023/05/24 05:16:12;;;;;;;13.45;2.45;;;;;;;13.36;60.26;101605.25;4948149;28;20100;-38
2023/05/24 05:18:38;;;;;;;15.65;2.72;;;;;;;13.39;60.58;101610.38;4976117;28;20053;-38
2023/05/24 05:21:05;;;;;;;18.27;3.17;;;;;;;13.39;60.70;101615.69;4964792;28;20757;-38
2023/05/24 05:23:31;;;;;;;10.55;2.47;;;;;;;13.31;60.73;101610.81;4943175;28;20022;-42
2023/05/24 05:25:57;;;;;;;11.35;2.45;;;;;;;13.27;60.95;101619.84;4953822;28;20934;-38
2023/05/24 05:28:22;;;;;;;16.35;3.03;;;;;;;13.21;61.12;101618.41;4953079;28;20038;-38
2023/05/24 05:30:48;;;;;;;14.13;3.33;;;;;;;13.25;61.13;101621.72;4952513;28;20049;-39
2023/05/24 05:33:13;;;;;;;15.25;2.35;;;;;;;13.22;61.03;101619.25;4954608;28;20517;-39
2023/05/24 05:35:40;;;;;;;15.07;3.42;;;;;;;13.28;61.15;101629.47;4931487;28;20043;-38
2023/05/24 05:38:05;;;;;;;19.30;3.25;;;;;;;13.30;61.03;101638.19;4936766;28;20039;-39
2023/05/24 05:40:31;;;;;;;9.40;2.05;;;;;;;13.32;60.90;101623.09;4973048;28;20034;-39
2023/05/24 05:42:57;;;;;;;16.13;2.83;;;;;;;13.49;60.64;101629.28;4935622;28;20046;-39
2023/05/24 05:45:23;;;;;;;19.90;5.05;;;;;;;13.53;60.50;101633.47;4959409;28;20038;-39
2023/05/24 05:47:52;;;;;;;26.10;4.82;;;;;;;13.51;60.63;101635.31;4950784;28;20031;-39
2023/05/24 05:50:20;;;;;;;8.80;2.75;;;;;;;13.48;60.70;101638.97;4957632;28;20125;-39
2023/05/24 05:52:46;;;;;;;16.63;2.75;;;;;;;13.48;60.67;101636.34;4952308;28;20027;-39
2023/05/24 05:55:15;;;;;;;17.92;4.43;;;;;;;13.50;60.77;101649.47;4939423;28;20417;-38
2023/05/24 05:57:43;;;;;;;15.30;2.75;;;;;;;13.52;60.80;101652.91;4948765;28;20046;-39
2023/05/24 06:00:09;;;;;;;12.60;2.45;;;;;;;13.51;60.71;101648.53;4965119;28;20073;-39
2023/05/24 06:02:37;;;;;;;18.75;2.60;;;;;;;13.54;60.77;101648.34;4951296;28;20054;-38
2023/05/24 06:05:03;;;;;;;11.95;2.33;;;;;;;13.56;60.73;101654.41;4964227;28;20121;-38
2023/05/24 06:07:29;;;;;;;14.27;3.85;;;;;;;13.57;60.81;101662.28;4950448;28;20032;-39
2023/05/24 06:09:55;;;;;;;9.15;4.05;;;;;;;13.66;60.57;101662.69;4947874;28;20057;-39
2023/05/24 06:12:21;;;;;;;14.48;2.85;;;;;;;13.70;60.48;101661.59;4965882;28;20117;-39
2023/05/24 06:14:49;;;;;;;23.98;5.22;;;;;;;13.75;60.54;101661.31;4949280;28;20033;-39
2023/05/24 06:17:19;;;;;;;11.10;2.75;;;;;;;13.84;60.34;101664.28;4939767;28;20038;-39
2023/05/24 06:19:47;;;;;;;9.85;2.63;;;;;;;13.94;60.27;101672.56;4969814;28;20036;-39
2023/05/24 06:22:13;;;;;;;16.23;2.60;;;;;;;13.99;59.96;101683.72;4965162;28;20554;-39
2023/05/24 06:24:42;;;;;;;11.68;2.35;;;;;;;14.11;59.45;101676.03;4952207;28;20034;-39
2023/05/24 06:27:08;;;;;;;21.50;2.85;;;;;;;14.18;59.24;101680.88;4962713;28;20117;-39
2023/05/24 06:29:34;;;;;;;11.55;2.35;;;;;;;14.20;59.34;101680.78;4966889;28;20022;-39
2023/05/24 06:32:02;;;;;;;11.50;3.40;;;;;;;14.31;59.22;101694.25;4953025;28;20089;-39
2023/05/24 06:34:28;;;;;;;23.40;3.60;;;;;;;14.23;59.18;101696.50;4966005;28;20027;-39
2023/05/24 06:36:59;;;;;;;16.27;2.88;;;;;;;14.18;59.24;101702.06;4972792;28;20065;-39
2023/05/24 06:39:25;;;;;;;21.73;2.90;;;;;;;14.15;59.19;101696.94;4969304;28;20163;-39
2023/05/24 06:41:53;;;;;;;9.90;2.33;;;;;;;14.07;59.20;101695.69;4934658;28;20039;-39
2023/05/24 06:44:22;;;;;;;13.20;2.40;;;;;;;14.03;59.39;101690.56;4968815;28;20030;-39
2023/05/24 06:46:47;;;;;;;11.38;3.17;;;;;;;13.99;59.56;101696.94;4954485;28;20044;-39
2023/05/24 06:49:16;;;;;;;13.20;3.60;;;;;;;14.05;59.50;101697.56;4968656;28;20047;-40
2023/05/24 06:51:41;;;;;;;9.80;2.88;;;;;;;14.19;59.22;101700.25;4936831;28;20422;-42
2023/05/24 06:54:09;;;;;;;13.93;3.80;;;;;;;14.38;58.98;101704.50;4971825;28;20477;-39
2023/05/24 06:56:37;;;;;;;11.50;2.97;;;;;;;14.43;58.91;101705.09;4975459;28;20558;-39
2023/05/24 06:59:07;;;;;;;6.88;2.50;;;;;;;14.57;58.72;101713.06;4958157;28;20034;-39
2023/05/24 07:01:33;;;;;;;7.10;2.55;;;;;;;14.63;58.40;101715.31;4968995;28;20038;-39
2023/05/24 07:03:59;;;;;;;12.50;2.80;;;;;;;14.56;58.49;101719.31;4970395;28;20026;-39
2023/05/24 07:06:27;;;;;;;20.05;4.97;;;;;;;14.54;58.41;101715.88;4948901;28;20026;-39
2023/05/24 07:08:56;;;;;;;12.50;3.33;;;;;;;14.53;58.51;101719.47;4958725;28;20104;-39
2023/05/24 07:11:21;;;;;;;10.25;2.47;;;;;;;14.54;58.20;101718.53;4953031;28;20038;-39
2023/05/24 07:13:50;;;;;;;15.63;2.60;;;;;;;14.55;58.21;101729.97;4937579;28;20027;-40
2023/05/24 07:16:16;;;;;;;14.70;2.65;;;;;;;14.53;58.19;101730.06;4973667;28;20045;-39
2023/05/24 07:18:46;;;;;;;13.95;2.38;;;;;;;14.52;58.39;101731.00;4958878;28;20057;-39
2023/05/24 07:21:12;;;;;;;12.52;3.63;;;;;;;14.52;58.40;101723.06;4951412;28;20034;-39
2023/05/24 07:23:40;;;;;;;17.27;3.63;;;;;;;14.64;58.32;101735.56;4955723;28;20042;-39
2023/05/24 07:26:13;;;;;;;10.18;2.60;;;;;;;14.69;58.01;101723.91;4975471;28;20042;-39
2023/05/24 07:28:41;;;;;;;11.82;2.47;;;;;;;14.72;58.14;101715.78;4970962;28;20599;-39
2023/05/24 07:31:11;;;;;;;10.07;3.00;;;;;;;14.67;58.33;101725.75;4975493;28;20224;-39
2023/05/24 07:33:40;;;;;;;12.25;3.15;;;;;;;14.78;58.20;101724.19;4966706;28;20084;-39
2023/05/24 07:36:06;;;;;;;10.25;2.78;;;;;;;14.97;58.13;101738.13;4946567;28;20034;-39
2023/05/24 07:38:33;;;;;;;10.63;2.45;;;;;;;15.07;57.79;101736.63;4967141;28;20026;-39
2023/05/24 07:41:05;;;;;;;17.02;2.35;;;;;;;15.12;57.59;101741.66;4947774;28;20088;-39
2023/05/24 07:43:33;;;;;;;11.23;3.40;;;;;;;15.17;57.57;101736.91;4962117;28;20038;-39
2023/05/24 07:46:02;;;;;;;10.13;2.47;;;;;;;15.32;57.17;101743.09;4960233;28;20036;-39
2023/05/24 07:48:30;;;;;;;15.50;3.15;;;;;;;15.23;57.11;101749.81;4963958;28;20500;-39
2023/05/24 07:50:58;;;;;;;13.27;2.88;;;;;;;15.36;56.78;101753.41;4949513;28;20462;-39
2023/05/24 07:53:29;;;;;;;14.38;2.70;;;;;;;15.38;56.54;101763.91;4975932;28;20033;-39
2023/05/24 07:55:57;;;;;;;12.52;2.63;;;;;;;15.43;56.34;101767.13;4956705;28;20033;-39
2023/05/24 07:58:22;;;;;;;13.90;3.13;;;;;;;15.38;56.26;101763.91;4945333;28;20070;-39
2023/05/24 08:00:54;;;;;;;10.63;2.97;;;;;;;15.42;56.17;101760.13;4965649;28;20129;-38
2023/05/24 08:03:19;;;;;;;9.07;2.13;;;;;;;15.43;55.90;101764.47;4958542;28;20038;-39
2023/05/24 08:05:48;;;;;;;13.20;2.78;;;;;;;15.41;56.11;101761.06;4947260;28;20042;-38
2023/05/24 08:08:14;;;;;;;9.68;2.92;;;;;;;15.40;55.81;101769.97;4940687;28;20066;-39
2023/05/24 08:10:40;;;;;;;13.90;3.10;;;;;;;15.51;55.72;101764.84;4935944;28;20307;-39
2023/05/24 08:13:06;;;;;;;14.15;3.25;;;;;;;15.66;55.50;101764.81;4927951;28;20038;-38
2023/05/24 08:15:32;;;;;;;13.93;2.72;;;;;;;15.82;55.08;101767.38;4970932;28;20041;-38
2023/05/24 08:17:57;;;;;;;26.52;3.55;;;;;;;15.88;55.13;101768.81;4950692;28;20040;-39
2023/05/24 08:20:23;;;;;;;13.68;3.25;;;;;;;15.88;55.06;101763.50;4950718;28;21096;-39
2023/05/24 08:22:49;;;;;;;17.13;2.65;;;;;;;15.93;54.99;101764.91;4940078;28;20030;-38
2023/05/24 08:25:15;;;;;;;13.15;2.65;;;;;;;16.03;54.56;101770.47;4959963;28;20045;-39
2023/05/24 08:27:41;;;;;;;12.90;3.00;;;;;;;16.12;54.46;101769.03;4979505;28;20061;-38
2023/05/24 08:30:07;;;;;;;22.05;4.38;;;;;;;16.22;54.33;101780.75;4956226;28;20113;-39
2023/05/24 08:32:33;;;;;;;13.25;2.88;;;;;;;16.32;54.36;101775.69;4969087;28;20092;-39
2023/05/24 08:34:59;;;;;;;13.77;2.55;;;;;;;16.40;54.03;101783.16;4970515;28;20030;-39
2023/05/24 08:37:25;;;;;;;13.95;3.03;;;;;;;16.39;53.74;101786.75;4965805;28;20034;-39
2023/05/24 08:39:51;;;;;;;14.13;2.38;;;;;;;16.35;53.68;101788.78;4957921;28;20034;-39
2023/05/24 08:42:16;;;;;;;11.13;2.95;;;;;;;16.39;53.77;101792.06;4955266;28;20026;-39
2023/05/24 08:44:45;;;;;;;13.52;2.90;;;;;;;16.37;53.49;101789.53;4936643;28;20030;-39
2023/05/24 08:47:12;;;;;;;8.95;2.50;;;;;;;16.34;53.38;101789.72;4970983;28;20034;-39
2023/05/24 08:56:24;;;;;;;10.98;3.13;;;;;;;16.32;52.81;101796.94;4967573;28;20048;-39
2023/05/24 08:58:50;;;;;;;13.63;3.08;;;;;;;16.34;52.58;101800.34;4953969;28;20097;-39
2023/05/24 09:01:16;;;;;;;12.10;2.33;;;;;;;16.38;52.55;101801.00;4971838;28;20032;-39
2023/05/24 09:03:45;;;;;;;6.90;2.42;;;;;;;16.44;52.33;101801.44;4972569;28;20035;-39
2023/05/24 09:06:12;;;;;;;10.00;2.05;;;;;;;16.44;51.92;101803.25;4944139;28;20032;-39
2023/05/24 09:08:41;;;;;;;10.52;2.95;;;;;;;16.56;51.92;101809.56;4954730;28;20042;-39
2023/05/24 09:11:07;;;;;;;10.63;2.70;;;;;;;16.58;51.46;101815.59;4950143;28;20038;-40
2023/05/24 09:13:34;;;;;;;13.57;2.15;;;;;;;16.58;51.28;101810.28;4953593;28;20034;-39
2023/05/24 09:16:00;;;;;;;17.27;2.92;;;;;;;16.58;51.57;101803.19;4951838;28;20030;-39
2023/05/24 09:18:26;;;;;;;10.88;2.67;;;;;;;16.56;51.62;101814.88;4970264;28;20034;-39
2023/05/24 09:20:52;;;;;;;12.23;3.30;;;;;;;16.55;51.40;101810.53;4969855;28;20040;-39
2023/05/24 09:23:18;;;;;;;17.40;3.53;;;;;;;16.48;51.56;101811.88;4948953;28;20044;-39
2023/05/24 09:25:47;;;;;;;11.90;3.50;;;;;;;16.45;51.26;101815.59;4966736;28;20045;-39
2023/05/24 09:28:16;;;;;;;11.30;3.28;;;;;;;16.37;51.65;101810.78;4966423;28;20041;-39
2023/05/24 09:30:56;;;;;;;7.47;2.60;;;;;;;16.41;51.01;101812.25;4969780;28;20022;-39
2023/05/24 09:33:23;;;;;;;10.18;2.42;;;;;;;16.47;51.47;101811.03;4967760;28;21215;-39
2023/05/24 09:35:48;;;;;;;10.68;2.63;;;;;;;16.48;51.45;101812.72;4971843;28;20077;-39
2023/05/24 09:38:18;;;;;;;12.75;2.85;;;;;;;16.66;51.31;101823.94;4962895;28;20173;-39
2023/05/24 09:40:45;;;;;;;12.13;3.42;;;;;;;16.72;51.35;101820.03;4969358;28;20057;-39
2023/05/24 09:43:11;;;;;;;12.65;2.35;;;;;;;16.81;51.06;101819.38;4954498;28;20470;-39
2023/05/24 09:45:45;;;;;;;5.03;2.25;;;;;;;16.88;50.55;101819.81;4949328;28;24577;-39
2023/05/24 09:48:16;;;;;;;10.85;2.55;;;;;;;16.87;50.35;101834.06;4965749;28;20038;-39
2023/05/24 09:50:44;;;;;;;12.73;5.13;;;;;;;16.84;50.67;101823.66;4953996;28;20026;-39
2023/05/24 09:53:10;;;;;;;10.65;3.20;;;;;;;16.90;50.51;101828.56;4969401;28;20416;-39
2023/05/24 09:55:36;;;;;;;11.05;2.42;;;;;;;16.90;50.40;101833.88;4955052;28;20037;-39
2023/05/24 09:58:07;;;;;;;6.72;2.30;;;;;;;16.85;49.97;101836.00;4971944;28;20041;-39
2023/05/24 10:00:39;;;;;;;12.23;2.97;;;;;;;16.75;50.17;101836.59;4955702;28;20067;-39
2023/05/24 10:03:10;;;;;;;11.00;2.63;;;;;;;16.76;50.42;101835.66;4952709;28;20049;-39
2023/05/24 10:05:37;;;;;;;10.88;2.20;;;;;;;16.86;50.32;101832.41;4968927;28;20029;-40
2023/05/24 10:08:03;;;;;;;8.75;2.08;;;;;;;16.94;50.00;101838.03;4967634;28;20034;-40
2023/05/24 10:10:31;;;;;;;16.13;3.03;;;;;;;16.97;50.05;101837.88;4968252;28;20698;-39
2023/05/24 10:12:58;;;;;;;9.50;2.53;;;;;;;17.00;49.89;101839.44;4968968;28;20999;-39
2023/05/24 10:15:27;;;;;;;12.98;2.97;;;;;;;16.97;50.13;101843.19;4968697;28;20051;-40
2023/05/24 10:17:56;;;;;;;12.02;2.60;;;;;;;16.98;49.54;101844.03;4946122;28;20034;-39
2023/05/24 10:20:23;;;;;;;13.18;2.65;;;;;;;16.99;49.75;101843.94;4966777;28;20034;-40
2023/05/24 10:22:59;;;;;;;9.25;2.58;;;;;;;16.93;49.91;101841.66;4969705;28;20065;-40
2023/05/24 10:25:31;;;;;;;8.63;3.15;;;;;;;16.96;49.97;101838.81;4969555;28;20037;-40
2023/05/24 10:28:00;;;;;;;8.55;2.40;;;;;;;17.02;50.02;101845.53;4971159;28;20034;-39
2023/05/24 10:30:34;;;;;;;9.45;2.53;;;;;;;17.00;49.79;101856.28;4936990;28;20038;-39
2023/05/24 10:33:05;;;;;;;14.20;2.63;;;;;;;17.01;49.83;101852.66;4967983;28;20033;-39
2023/05/24 10:35:32;;;;;;;16.30;3.30;;;;;;;16.98;49.81;101862.63;4952600;28;20565;-39
2023/05/24 10:37:58;;;;;;;9.52;2.42;;;;;;;17.00;49.96;101852.75;4967391;28;20069;-39
2023/05/24 10:40:24;;;;;;;16.48;3.08;;;;;;;16.99;49.88;101862.53;4958409;28;20121;-39
2023/05/24 10:42:55;;;;;;;10.93;3.90;;;;;;;16.97;49.77;101856.47;4950579;28;20034;-39
2023/05/24 10:45:24;;;;;;;19.75;3.30;;;;;;;17.03;49.91;101855.22;4953719;28;20038;-39
2023/05/24 10:47:50;;;;;;;11.95;3.00;;;;;;;17.09;49.92;101860.13;4968683;28;20053;-40
2023/05/24 10:50:21;;;;;;;8.45;2.53;;;;;;;17.13;49.86;101866.06;4958032;28;20162;-39
2023/05/24 10:52:50;;;;;;;15.43;2.67;;;;;;;17.11;49.74;101857.34;4968014;28;20038;-39
2023/05/24 10:55:18;;;;;;;12.93;2.40;;;;;;;17.11;49.84;101860.00;4949163;28;20520;-39
2023/05/24 10:57:44;;;;;;;8.50;2.35;;;;;;;17.14;49.59;101867.78;4956215;28;20030;-40
2023/05/24 11:00:19;;;;;;;11.98;2.88;;;;;;;17.14;49.43;101865.97;4962811;28;20031;-39
2023/05/24 11:02:48;;;;;;;13.75;4.45;;;;;;;17.10;49.79;101859.13;4967875;28;20029;-39
2023/05/24 11:05:14;;;;;;;16.95;5.50;;;;;;;17.12;49.89;101869.69;4968695;28;20501;-39
2023/05/24 11:07:43;;;;;;;9.63;2.58;;;;;;;17.10;50.33;101864.44;4953709;28;20030;-39
2023/05/24 11:10:17;;;;;;;16.42;3.75;;;;;;;17.15;50.52;101864.16;4968794;28;20429;-39
2023/05/24 11:12:43;;;;;;;10.30;3.15;;;;;;;17.14;50.60;101873.09;4984368;28;20486;-39
2023/05/24 11:15:10;;;;;;;10.38;3.30;;;;;;;17.09;50.75;101875.22;4948126;28;20048;-41
2023/05/24 11:18:16;;;;;;;13.90;3.50;;;;;;;17.11;50.54;101873.31;4944636;28;20092;-39
2023/05/24 11:20:46;;;;;;;9.75;2.75;;;;;;;17.12;50.58;101878.50;4967908;28;20043;-39
2023/05/24 11:23:15;;;;;;;9.30;2.47;;;;;;;17.08;50.56;101881.47;4974513;28;20061;-39
2023/05/24 11:25:41;;;;;;;9.60;2.83;;;;;;;17.06;50.74;101877.13;4954515;28;20409;-39
2023/05/24 11:28:11;;;;;;;11.38;3.55;;;;;;;17.18;50.68;101882.56;4972314;28;20169;-39
2023/05/24 11:30:44;;;;;;;13.38;2.78;;;;;;;17.29;50.60;101882.69;4959451;28;20034;-39